sensor_id;sensor_type;location;lat;lon;timestamp;pressure;altitude;pressure_sealevel;temperature;humidity
36386;BME280;24125;47.482;8.770;2023-07-31T00:02:32;96451.53;;;17.70;81.41
36386;BME280;24125;47.482;8.770;2023-07-31T00:05:08;96446.84;;;17.67;81.22
36386;BME280;24125;47.482;8.770;2023-07-31T00:07:41;96453.75;;;17.65;81.36
36386;BME280;24125;47.482;8.770;2023-07-31T00:10:15;96448.63;;;17.60;81.22
36386;BME280;24125;47.482;8.770;2023-07-31T00:12:48;96447.78;;;17.56;81.36
36386;BME280;24125;47.482;8.770;2023-07-31T00:15:21;96433.47;;;17.52;81.35
36386;BME280;24125;47.482;8.770;2023-07-31T00:17:54;96443.44;;;17.48;81.50
36386;BME280;24125;47.482;8.770;2023-07-31T00:20:27;96451.50;;;17.44;81.43
36386;BME280;24125;47.482;8.770;2023-07-31T00:23:00;96441.41;;;17.41;81.57
36386;BME280;24125;47.482;8.770;2023-07-31T00:25:35;96452.16;;;17.38;81.63
36386;BME280;24125;47.482;8.770;2023-07-31T00:28:08;96445.91;;;17.33;81.33
36386;BME280;24125;47.482;8.770;2023-07-31T00:30:41;96457.06;;;17.32;81.48
36386;BME280;24125;47.482;8.770;2023-07-31T00:33:14;96447.38;;;17.27;81.32
36386;BME280;24125;47.482;8.770;2023-07-31T00:35:48;96454.63;;;17.23;81.25
36386;BME280;24125;47.482;8.770;2023-07-31T00:38:21;96446.09;;;17.21;81.34
36386;BME280;24125;47.482;8.770;2023-07-31T00:40:55;96449.53;;;17.18;81.24
36386;BME280;24125;47.482;8.770;2023-07-31T00:43:28;96442.94;;;17.16;81.53
36386;BME280;24125;47.482;8.770;2023-07-31T00:46:01;96447.50;;;17.12;81.26
36386;BME280;24125;47.482;8.770;2023-07-31T00:48:34;96448.22;;;17.09;81.50
36386;BME280;24125;47.482;8.770;2023-07-31T00:51:07;96440.84;;;17.06;81.66
36386;BME280;24125;47.482;8.770;2023-07-31T00:53:40;96443.13;;;17.04;81.69
36386;BME280;24125;47.482;8.770;2023-07-31T00:56:16;96433.06;;;17.01;81.43
36386;BME280;24125;47.482;8.770;2023-07-31T00:58:49;96436.47;;;16.97;81.75
36386;BME280;24125;47.482;8.770;2023-07-31T01:01:22;96439.50;;;16.96;81.85
36386;BME280;24125;47.482;8.770;2023-07-31T01:03:55;96429.47;;;16.93;81.76
36386;BME280;24125;47.482;8.770;2023-07-31T01:06:30;96436.34;;;16.90;81.59
36386;BME280;24125;47.482;8.770;2023-07-31T01:09:04;96426.25;;;16.87;81.50
36386;BME280;24125;47.482;8.770;2023-07-31T01:11:42;96430.47;;;16.85;81.77
36386;BME280;24125;47.482;8.770;2023-07-31T01:14:16;96432.75;;;16.83;81.55
36386;BME280;24125;47.482;8.770;2023-07-31T01:16:48;96433.81;;;16.78;81.62
36386;BME280;24125;47.482;8.770;2023-07-31T01:19:22;96425.31;;;16.76;81.38
36386;BME280;24125;47.482;8.770;2023-07-31T01:22:03;96426.81;;;16.74;81.38
36386;BME280;24125;47.482;8.770;2023-07-31T01:24:47;96418.66;;;16.70;81.78
36386;BME280;24125;47.482;8.770;2023-07-31T01:27:27;96419.72;;;16.66;81.43
36386;BME280;24125;47.482;8.770;2023-07-31T01:30:05;96422.00;;;16.64;81.49
36386;BME280;24125;47.482;8.770;2023-07-31T01:32:43;96420.78;;;16.61;81.77
36386;BME280;24125;47.482;8.770;2023-07-31T01:35:16;96418.81;;;16.58;81.63
36386;BME280;24125;47.482;8.770;2023-07-31T01:37:49;96419.50;;;16.55;81.52
36386;BME280;24125;47.482;8.770;2023-07-31T01:40:24;96409.44;;;16.52;81.37
36386;BME280;24125;47.482;8.770;2023-07-31T01:42:59;96409.38;;;16.48;81.43
36386;BME280;24125;47.482;8.770;2023-07-31T01:45:32;96399.31;;;16.45;81.71
36386;BME280;24125;47.482;8.770;2023-07-31T01:48:05;96407.75;;;16.44;81.76
36386;BME280;24125;47.482;8.770;2023-07-31T01:50:38;96401.94;;;16.42;81.86
36386;BME280;24125;47.482;8.770;2023-07-31T01:53:11;96400.75;;;16.39;81.59
36386;BME280;24125;47.482;8.770;2023-07-31T01:55:44;96405.34;;;16.39;81.43
36386;BME280;24125;47.482;8.770;2023-07-31T01:58:19;96397.97;;;16.36;81.66
36386;BME280;24125;47.482;8.770;2023-07-31T02:00:52;96389.06;;;16.32;81.72
36386;BME280;24125;47.482;8.770;2023-07-31T02:03:25;96384.81;;;16.31;81.75
36386;BME280;24125;47.482;8.770;2023-07-31T02:05:59;96385.50;;;16.28;81.58
36386;BME280;24125;47.482;8.770;2023-07-31T02:08:32;96383.94;;;16.27;81.38
36386;BME280;24125;47.482;8.770;2023-07-31T02:11:05;96386.25;;;16.25;81.53
36386;BME280;24125;47.482;8.770;2023-07-31T02:13:39;96384.25;;;16.21;81.69
36386;BME280;24125;47.482;8.770;2023-07-31T02:16:12;96383.81;;;16.19;81.46
36386;BME280;24125;47.482;8.770;2023-07-31T02:18:45;96382.63;;;16.17;81.48
36386;BME280;24125;47.482;8.770;2023-07-31T02:21:18;96373.69;;;16.13;81.72
36386;BME280;24125;47.482;8.770;2023-07-31T02:23:51;96367.88;;;16.11;81.50
36386;BME280;24125;47.482;8.770;2023-07-31T02:26:25;96363.63;;;16.10;81.49
36386;BME280;24125;47.482;8.770;2023-07-31T02:28:59;96360.88;;;16.06;81.63
36386;BME280;24125;47.482;8.770;2023-07-31T02:31:32;96365.81;;;16.04;81.97
36386;BME280;24125;47.482;8.770;2023-07-31T02:34:05;96360.00;;;16.02;82.08
36386;BME280;24125;47.482;8.770;2023-07-31T02:36:38;96358.03;;;15.99;81.68
36386;BME280;24125;47.482;8.770;2023-07-31T02:39:11;96359.19;;;15.98;81.71
36386;BME280;24125;47.482;8.770;2023-07-31T02:41:45;96364.56;;;15.98;82.13
36386;BME280;24125;47.482;8.770;2023-07-31T02:44:19;96361.00;;;15.94;81.73
36386;BME280;24125;47.482;8.770;2023-07-31T02:46:52;96370.22;;;15.93;82.01
36386;BME280;24125;47.482;8.770;2023-07-31T02:49:25;96370.22;;;15.93;81.84
36386;BME280;24125;47.482;8.770;2023-07-31T02:51:58;96364.06;;;15.93;82.31
36386;BME280;24125;47.482;8.770;2023-07-31T02:54:31;96371.72;;;15.91;82.01
36386;BME280;24125;47.482;8.770;2023-07-31T02:57:04;96362.09;;;15.90;82.29
36386;BME280;24125;47.482;8.770;2023-07-31T02:59:39;96364.44;;;15.91;82.44
36386;BME280;24125;47.482;8.770;2023-07-31T03:02:12;96368.31;;;15.94;82.83
36386;BME280;24125;47.482;8.770;2023-07-31T03:04:45;96363.78;;;15.98;83.39
36386;BME280;24125;47.482;8.770;2023-07-31T03:07:18;96372.69;;;16.02;83.33
36386;BME280;24125;47.482;8.770;2023-07-31T03:09:51;96363.91;;;16.05;83.41
36386;BME280;24125;47.482;8.770;2023-07-31T03:12:24;96358.66;;;16.12;83.50
36386;BME280;24125;47.482;8.770;2023-07-31T03:14:58;96362.56;;;16.14;83.58
36386;BME280;24125;47.482;8.770;2023-07-31T03:17:31;96369.91;;;16.17;83.81
36386;BME280;24125;47.482;8.770;2023-07-31T03:20:05;96370.78;;;16.21;83.75
36386;BME280;24125;47.482;8.770;2023-07-31T03:22:37;96370.47;;;16.27;83.59
36386;BME280;24125;47.482;8.770;2023-07-31T03:25:10;96368.63;;;16.31;83.88
36386;BME280;24125;47.482;8.770;2023-07-31T03:27:44;96380.25;;;16.35;84.05
36386;BME280;24125;47.482;8.770;2023-07-31T03:30:18;96373.81;;;16.39;83.99
36386;BME280;24125;47.482;8.770;2023-07-31T03:32:51;96377.31;;;16.43;84.12
36386;BME280;24125;47.482;8.770;2023-07-31T03:35:24;96378.53;;;16.46;84.09
36386;BME280;24125;47.482;8.770;2023-07-31T03:37:57;96370.16;;;16.51;83.87
36386;BME280;24125;47.482;8.770;2023-07-31T03:40:29;96363.34;;;16.57;84.13
36386;BME280;24125;47.482;8.770;2023-07-31T03:43:02;96368.03;;;16.60;83.90
36386;BME280;24125;47.482;8.770;2023-07-31T03:45:36;96355.75;;;16.63;84.13
36386;BME280;24125;47.482;8.770;2023-07-31T03:48:09;96366.59;;;16.66;83.81
36386;BME280;24125;47.482;8.770;2023-07-31T03:50:43;96371.25;;;16.69;83.77
36386;BME280;24125;47.482;8.770;2023-07-31T03:53:16;96381.34;;;16.72;83.45
36386;BME280;24125;47.482;8.770;2023-07-31T03:55:49;96377.94;;;16.75;83.69
36386;BME280;24125;47.482;8.770;2023-07-31T03:58:23;96373.34;;;16.79;83.67
36386;BME280;24125;47.482;8.770;2023-07-31T04:00:58;96386.91;;;16.83;84.11
36386;BME280;24125;47.482;8.770;2023-07-31T04:03:31;96385.81;;;16.87;83.82
36386;BME280;24125;47.482;8.770;2023-07-31T04:06:04;96393.63;;;16.92;84.12
36386;BME280;24125;47.482;8.770;2023-07-31T04:08:38;96392.94;;;16.99;84.17
36386;BME280;24125;47.482;8.770;2023-07-31T04:11:11;96399.59;;;17.05;84.30
36386;BME280;24125;47.482;8.770;2023-07-31T04:13:44;96399.72;;;17.12;84.53
36386;BME280;24125;47.482;8.770;2023-07-31T04:16:18;96389.81;;;17.20;84.42
36386;BME280;24125;47.482;8.770;2023-07-31T04:18:51;96398.38;;;17.25;84.47
36386;BME280;24125;47.482;8.770;2023-07-31T04:21:24;96394.66;;;17.33;84.53
36386;BME280;24125;47.482;8.770;2023-07-31T04:23:57;96384.31;;;17.39;84.35
36386;BME280;24125;47.482;8.770;2023-07-31T04:26:30;96390.19;;;17.45;84.61
36386;BME280;24125;47.482;8.770;2023-07-31T04:29:03;96396.81;;;17.51;84.26
36386;BME280;24125;47.482;8.770;2023-07-31T04:31:37;96400.75;;;17.57;84.18
36386;BME280;24125;47.482;8.770;2023-07-31T04:34:10;96401.28;;;17.62;84.60
36386;BME280;24125;47.482;8.770;2023-07-31T04:36:44;96402.50;;;17.68;84.59
36386;BME280;24125;47.482;8.770;2023-07-31T04:39:17;96392.16;;;17.74;84.56
36386;BME280;24125;47.482;8.770;2023-07-31T04:41:50;96405.38;;;17.83;84.76
36386;BME280;24125;47.482;8.770;2023-07-31T04:44:23;96402.81;;;17.90;85.01
36386;BME280;24125;47.482;8.770;2023-07-31T04:46:57;96405.22;;;17.98;84.73
36386;BME280;24125;47.482;8.770;2023-07-31T04:49:31;96401.47;;;18.06;84.82
36386;BME280;24125;47.482;8.770;2023-07-31T04:52:04;96394.22;;;18.14;84.86
36386;BME280;24125;47.482;8.770;2023-07-31T04:54:37;96386.19;;;18.21;84.71
36386;BME280;24125;47.482;8.770;2023-07-31T04:57:10;96385.06;;;18.26;84.54
36386;BME280;24125;47.482;8.770;2023-07-31T04:59:43;96383.97;;;18.30;84.33
36386;BME280;24125;47.482;8.770;2023-07-31T05:02:18;96387.47;;;18.34;84.20
36386;BME280;24125;47.482;8.770;2023-07-31T05:04:51;96389.44;;;18.37;84.02
36386;BME280;24125;47.482;8.770;2023-07-31T05:07:24;96388.72;;;18.40;84.06
36386;BME280;24125;47.482;8.770;2023-07-31T05:09:56;96387.97;;;18.43;83.82
36386;BME280;24125;47.482;8.770;2023-07-31T05:12:29;96387.22;;;18.46;83.91
36386;BME280;24125;47.482;8.770;2023-07-31T05:15:02;96382.25;;;18.48;83.97
36386;BME280;24125;47.482;8.770;2023-07-31T05:17:37;96377.63;;;18.53;83.97
36386;BME280;24125;47.482;8.770;2023-07-31T05:20:10;96380.03;;;18.58;84.02
36386;BME280;24125;47.482;8.770;2023-07-31T05:22:43;96378.91;;;18.62;84.06
36386;BME280;24125;47.482;8.770;2023-07-31T05:25:16;96383.59;;;18.69;84.09
36386;BME280;24125;47.482;8.770;2023-07-31T05:27:48;96389.47;;;18.74;84.39
36386;BME280;24125;47.482;8.770;2023-07-31T05:30:21;96387.59;;;18.82;84.41
36386;BME280;24125;47.482;8.770;2023-07-31T05:32:56;96390.38;;;18.89;84.36
36386;BME280;24125;47.482;8.770;2023-07-31T05:35:29;96388.88;;;18.95;84.42
36386;BME280;24125;47.482;8.770;2023-07-31T05:38:02;96388.56;;;19.04;84.57
36386;BME280;24125;47.482;8.770;2023-07-31T05:40:35;96392.09;;;19.11;84.50
36386;BME280;24125;47.482;8.770;2023-07-31T05:43:07;96389.47;;;19.18;84.30
36386;BME280;24125;47.482;8.770;2023-07-31T05:45:41;96398.78;;;19.25;84.33
36386;BME280;24125;47.482;8.770;2023-07-31T05:48:16;96396.91;;;19.32;84.49
36386;BME280;24125;47.482;8.770;2023-07-31T05:50:49;96389.97;;;19.38;84.46
36386;BME280;24125;47.482;8.770;2023-07-31T05:53:22;96389.25;;;19.45;84.44
36386;BME280;24125;47.482;8.770;2023-07-31T05:55:55;96385.84;;;19.51;84.24
36386;BME280;24125;47.482;8.770;2023-07-31T05:58:28;96386.25;;;19.57;84.23
36386;BME280;24125;47.482;8.770;2023-07-31T06:01:00;96394.41;;;19.64;84.09
36386;BME280;24125;47.482;8.770;2023-07-31T06:03:35;96392.53;;;19.68;84.15
36386;BME280;24125;47.482;8.770;2023-07-31T06:06:08;96392.16;;;19.73;84.00
36386;BME280;24125;47.482;8.770;2023-07-31T06:08:42;96389.47;;;19.77;83.67
36386;BME280;24125;47.482;8.770;2023-07-31T06:11:15;96387.53;;;19.81;83.77
36386;BME280;24125;47.482;8.770;2023-07-31T06:13:47;96381.00;;;19.85;83.58
36386;BME280;24125;47.482;8.770;2023-07-31T06:16:21;96382.19;;;19.88;83.59
36386;BME280;24125;47.482;8.770;2023-07-31T06:18:55;96374.81;;;19.92;83.59
36386;BME280;24125;47.482;8.770;2023-07-31T06:21:28;96375.25;;;19.98;83.68
36386;BME280;24125;47.482;8.770;2023-07-31T06:24:02;96371.38;;;20.02;83.89
36386;BME280;24125;47.482;8.770;2023-07-31T06:26:35;96370.63;;;20.09;83.81
36386;BME280;24125;47.482;8.770;2023-07-31T06:29:08;96385.75;;;20.17;84.06
36386;BME280;24125;47.482;8.770;2023-07-31T06:31:41;96379.63;;;20.23;84.32
36386;BME280;24125;47.482;8.770;2023-07-31T06:34:16;96374.22;;;20.34;84.43
36386;BME280;24125;47.482;8.770;2023-07-31T06:36:49;96363.78;;;20.43;84.45
36386;BME280;24125;47.482;8.770;2023-07-31T06:39:22;96370.03;;;20.54;84.56
36386;BME280;24125;47.482;8.770;2023-07-31T06:41:55;96370.81;;;20.65;84.49
36386;BME280;24125;47.482;8.770;2023-07-31T06:44:28;96379.38;;;20.75;84.50
36386;BME280;24125;47.482;8.770;2023-07-31T06:47:00;96379.00;;;20.83;84.39
36386;BME280;24125;47.482;8.770;2023-07-31T06:49:35;96389.06;;;20.93;84.34
36386;BME280;24125;47.482;8.770;2023-07-31T06:52:08;96379.38;;;21.03;84.31
36386;BME280;24125;47.482;8.770;2023-07-31T06:54:42;96386.34;;;21.15;84.56
36386;BME280;24125;47.482;8.770;2023-07-31T06:57:15;96391.81;;;21.29;84.51
36386;BME280;24125;47.482;8.770;2023-07-31T06:59:48;96370.84;;;21.40;85.09
36386;BME280;24125;47.482;8.770;2023-07-31T07:02:21;96373.53;;;21.58;85.33
36386;BME280;24125;47.482;8.770;2023-07-31T07:04:55;96356.81;;;21.73;85.69
36386;BME280;24125;47.482;8.770;2023-07-31T07:07:31;96352.84;;;21.92;86.08
36386;BME280;24125;47.482;8.770;2023-07-31T07:10:07;96341.16;;;22.13;86.14
36386;BME280;24125;47.482;8.770;2023-07-31T07:12:40;96343.38;;;22.32;85.48
36386;BME280;24125;47.482;8.770;2023-07-31T07:15:13;96339.00;;;22.49;85.55
36386;BME280;24125;47.482;8.770;2023-07-31T07:17:46;96343.19;;;22.64;85.31
36386;BME280;24125;47.482;8.770;2023-07-31T07:20:20;96345.06;;;22.78;84.78
36386;BME280;24125;47.482;8.770;2023-07-31T07:22:53;96341.88;;;22.90;84.16
36386;BME280;24125;47.482;8.770;2023-07-31T07:25:26;96338.28;;;23.00;83.45
36386;BME280;24125;47.482;8.770;2023-07-31T07:27:59;96334.69;;;23.10;83.27
36386;BME280;24125;47.482;8.770;2023-07-31T07:30:32;96339.25;;;23.20;83.40
36386;BME280;24125;47.482;8.770;2023-07-31T07:33:04;96340.31;;;23.33;83.68
36386;BME280;24125;47.482;8.770;2023-07-31T07:35:39;96340.16;;;23.48;84.15
36386;BME280;24125;47.482;8.770;2023-07-31T07:38:13;96332.63;;;23.62;84.08
36386;BME280;24125;47.482;8.770;2023-07-31T07:40:46;96337.56;;;23.78;84.46
36386;BME280;24125;47.482;8.770;2023-07-31T07:43:21;96334.66;;;23.92;82.29
36386;BME280;24125;47.482;8.770;2023-07-31T07:45:54;96340.31;;;24.05;83.51
36386;BME280;24125;47.482;8.770;2023-07-31T07:48:27;96334.31;;;24.17;82.03
36386;BME280;24125;47.482;8.770;2023-07-31T07:51:01;96347.91;;;24.24;82.43
36386;BME280;24125;47.482;8.770;2023-07-31T07:53:34;96350.97;;;24.30;82.23
36386;BME280;24125;47.482;8.770;2023-07-31T07:56:07;96360.22;;;24.36;81.81
36386;BME280;24125;47.482;8.770;2023-07-31T07:58:40;96356.63;;;24.42;82.12
36386;BME280;24125;47.482;8.770;2023-07-31T08:01:13;96363.53;;;24.51;82.62
36386;BME280;24125;47.482;8.770;2023-07-31T08:03:46;96361.47;;;24.58;82.12
36386;BME280;24125;47.482;8.770;2023-07-31T08:06:20;96353.94;;;24.66;82.92
36386;BME280;24125;47.482;8.770;2023-07-31T08:08:54;96351.06;;;24.76;82.95
36386;BME280;24125;47.482;8.770;2023-07-31T08:11:26;96343.50;;;24.88;81.74
36386;BME280;24125;47.482;8.770;2023-07-31T08:13:59;96335.16;;;24.98;82.39
36386;BME280;24125;47.482;8.770;2023-07-31T08:16:32;96337.38;;;25.07;77.37
36386;BME280;24125;47.482;8.770;2023-07-31T08:19:05;96341.09;;;25.16;80.50
36386;BME280;24125;47.482;8.770;2023-07-31T08:21:39;96341.31;;;25.26;81.07
36386;BME280;24125;47.482;8.770;2023-07-31T08:24:12;96338.00;;;25.38;81.93
36386;BME280;24125;47.482;8.770;2023-07-31T08:26:45;96329.88;;;25.54;82.54
36386;BME280;24125;47.482;8.770;2023-07-31T08:29:18;96321.31;;;25.75;83.48
36386;BME280;24125;47.482;8.770;2023-07-31T08:31:51;96323.97;;;25.99;83.63
36386;BME280;24125;47.482;8.770;2023-07-31T08:34:24;96320.34;;;26.21;83.66
36386;BME280;24125;47.482;8.770;2023-07-31T08:36:58;96315.13;;;26.47;84.81
36386;BME280;24125;47.482;8.770;2023-07-31T08:39:30;96321.25;;;26.71;84.01
36386;BME280;24125;47.482;8.770;2023-07-31T08:42:03;96323.91;;;26.90;82.14
36386;BME280;24125;47.482;8.770;2023-07-31T08:44:36;96316.94;;;27.06;81.47
36386;BME280;24125;47.482;8.770;2023-07-31T08:47:09;96312.69;;;27.17;78.13
36386;BME280;24125;47.482;8.770;2023-07-31T08:49:43;96318.03;;;27.24;80.11
36386;BME280;24125;47.482;8.770;2023-07-31T08:52:17;96319.88;;;27.27;79.09
36386;BME280;24125;47.482;8.770;2023-07-31T08:54:50;96311.22;;;27.29;79.67
36386;BME280;24125;47.482;8.770;2023-07-31T08:57:23;96312.09;;;27.26;79.50
36386;BME280;24125;47.482;8.770;2023-07-31T08:59:56;96304.75;;;27.23;78.25
36386;BME280;24125;47.482;8.770;2023-07-31T09:02:30;96297.78;;;27.18;78.41
36386;BME280;24125;47.482;8.770;2023-07-31T09:05:07;96292.44;;;27.15;78.48
36386;BME280;24125;47.482;8.770;2023-07-31T09:07:41;96300.81;;;27.08;77.29
36386;BME280;24125;47.482;8.770;2023-07-31T09:10:17;96296.69;;;26.99;77.60
36386;BME280;24125;47.482;8.770;2023-07-31T09:12:51;96286.34;;;26.91;76.77
36386;BME280;24125;47.482;8.770;2023-07-31T09:15:24;96296.69;;;26.83;78.95
36386;BME280;24125;47.482;8.770;2023-07-31T09:18:08;96290.25;;;26.74;79.06
36386;BME280;24125;47.482;8.770;2023-07-31T09:20:41;96286.16;;;26.65;76.82
36386;BME280;24125;47.482;8.770;2023-07-31T09:23:15;96291.81;;;26.58;78.50
36386;BME280;24125;47.482;8.770;2023-07-31T09:25:48;96291.19;;;26.51;78.69
36386;BME280;24125;47.482;8.770;2023-07-31T09:28:21;96291.72;;;26.46;77.80
36386;BME280;24125;47.482;8.770;2023-07-31T09:31:03;96285.19;;;26.40;79.01
36386;BME280;24125;47.482;8.770;2023-07-31T09:33:36;96277.16;;;26.33;78.41
36386;BME280;24125;47.482;8.770;2023-07-31T09:36:28;96280.81;;;26.26;79.02
36386;BME280;24125;47.482;8.770;2023-07-31T09:39:03;96281.72;;;26.19;79.03
36386;BME280;24125;47.482;8.770;2023-07-31T09:41:36;96281.44;;;26.14;78.83
36386;BME280;24125;47.482;8.770;2023-07-31T09:44:10;96278.78;;;26.10;80.36
36386;BME280;24125;47.482;8.770;2023-07-31T09:46:43;96286.66;;;26.08;79.00
36386;BME280;24125;47.482;8.770;2023-07-31T09:49:16;96278.84;;;26.07;76.63
36386;BME280;24125;47.482;8.770;2023-07-31T09:51:48;96277.66;;;26.08;78.87
36386;BME280;24125;47.482;8.770;2023-07-31T09:54:23;96273.38;;;26.07;78.85
36386;BME280;24125;47.482;8.770;2023-07-31T09:56:55;96272.19;;;26.08;79.99
36386;BME280;24125;47.482;8.770;2023-07-31T09:59:31;96265.59;;;26.05;79.15
36386;BME280;24125;47.482;8.770;2023-07-31T10:02:04;96266.38;;;26.06;79.02
36386;BME280;24125;47.482;8.770;2023-07-31T10:04:37;96270.66;;;26.07;79.86
36386;BME280;24125;47.482;8.770;2023-07-31T10:07:11;96272.53;;;26.10;80.04
36386;BME280;24125;47.482;8.770;2023-07-31T10:09:45;96254.84;;;26.14;80.39
36386;BME280;24125;47.482;8.770;2023-07-31T10:12:19;96255.56;;;26.18;81.02
36386;BME280;24125;47.482;8.770;2023-07-31T10:14:54;96238.72;;;26.20;80.30
36386;BME280;24125;47.482;8.770;2023-07-31T10:17:27;96246.47;;;26.21;82.20
36386;BME280;24125;47.482;8.770;2023-07-31T10:20:01;96239.13;;;26.18;80.29
36386;BME280;24125;47.482;8.770;2023-07-31T10:22:35;96229.81;;;26.16;79.27
36386;BME280;24125;47.482;8.770;2023-07-31T10:25:10;96227.47;;;26.14;79.29
36386;BME280;24125;47.482;8.770;2023-07-31T10:27:43;96229.53;;;26.10;79.71
36386;BME280;24125;47.482;8.770;2023-07-31T10:30:17;96224.91;;;26.07;76.19
36386;BME280;24125;47.482;8.770;2023-07-31T10:32:51;96236.28;;;26.06;78.98
36386;BME280;24125;47.482;8.770;2023-07-31T10:35:25;96215.25;;;26.03;78.31
36386;BME280;24125;47.482;8.770;2023-07-31T10:38:07;96198.84;;;26.03;79.10
36386;BME280;24125;47.482;8.770;2023-07-31T10:40:43;96197.63;;;26.04;76.63
36386;BME280;24125;47.482;8.770;2023-07-31T10:43:26;96196.88;;;26.03;73.92
36386;BME280;24125;47.482;8.770;2023-07-31T10:45:59;96193.69;;;26.05;76.42
36386;BME280;24125;47.482;8.770;2023-07-31T10:48:33;96189.34;;;26.07;78.63
36386;BME280;24125;47.482;8.770;2023-07-31T10:51:07;96183.47;;;26.09;79.24
36386;BME280;24125;47.482;8.770;2023-07-31T10:53:40;96186.97;;;26.09;78.63
36386;BME280;24125;47.482;8.770;2023-07-31T10:56:15;96175.25;;;26.09;78.78
36386;BME280;24125;47.482;8.770;2023-07-31T10:58:59;96167.03;;;26.09;78.08
36386;BME280;24125;47.482;8.770;2023-07-31T11:01:50;96163.94;;;26.07;75.47
36386;BME280;24125;47.482;8.770;2023-07-31T11:04:24;96155.41;;;26.05;75.37
36386;BME280;24125;47.482;8.770;2023-07-31T11:06:57;96153.84;;;26.04;78.10
36386;BME280;24125;47.482;8.770;2023-07-31T11:09:31;96151.22;;;26.00;79.13
36386;BME280;24125;47.482;8.770;2023-07-31T11:12:06;96148.47;;;26.00;79.56
36386;BME280;24125;47.482;8.770;2023-07-31T11:14:39;96143.44;;;25.99;78.07
36386;BME280;24125;47.482;8.770;2023-07-31T11:17:12;96144.63;;;25.98;77.81
36386;BME280;24125;47.482;8.770;2023-07-31T11:19:45;96132.50;;;25.99;78.29
36386;BME280;24125;47.482;8.770;2023-07-31T11:22:18;96124.72;;;25.97;78.71
36386;BME280;24125;47.482;8.770;2023-07-31T11:24:51;96132.16;;;25.97;77.74
36386;BME280;24125;47.482;8.770;2023-07-31T11:27:28;96125.47;;;25.98;78.62
36386;BME280;24125;47.482;8.770;2023-07-31T11:30:01;96125.47;;;25.98;78.70
36386;BME280;24125;47.482;8.770;2023-07-31T11:32:35;96132.50;;;25.99;80.51
36386;BME280;24125;47.482;8.770;2023-07-31T11:35:11;96122.31;;;25.99;79.50
36386;BME280;24125;47.482;8.770;2023-07-31T11:37:45;96122.31;;;25.99;80.07
36386;BME280;24125;47.482;8.770;2023-07-31T11:40:18;96134.47;;;25.98;78.44
36386;BME280;24125;47.482;8.770;2023-07-31T11:43:03;96141.88;;;25.98;79.46
36386;BME280;24125;47.482;8.770;2023-07-31T11:45:37;96131.72;;;25.98;81.22
36386;BME280;24125;47.482;8.770;2023-07-31T11:48:17;96143.84;;;25.97;78.83
36386;BME280;24125;47.482;8.770;2023-07-31T11:50:51;96136.41;;;25.98;79.91
36386;BME280;24125;47.482;8.770;2023-07-31T11:53:25;96143.84;;;25.97;78.64
36386;BME280;24125;47.482;8.770;2023-07-31T11:55:59;96133.69;;;25.98;78.57
36386;BME280;24125;47.482;8.770;2023-07-31T11:58:35;96126.25;;;25.98;79.97
36386;BME280;24125;47.482;8.770;2023-07-31T12:01:08;96111.38;;;25.99;80.38
36386;BME280;24125;47.482;8.770;2023-07-31T12:03:42;96125.06;;;25.99;80.14
36386;BME280;24125;47.482;8.770;2023-07-31T12:06:15;96111.38;;;25.99;78.09
36386;BME280;24125;47.482;8.770;2023-07-31T12:08:48;96120.72;;;26.02;78.56
36386;BME280;24125;47.482;8.770;2023-07-31T12:11:21;96119.84;;;26.05;83.90
36386;BME280;24125;47.482;8.770;2023-07-31T12:13:56;96117.88;;;26.05;81.23
36386;BME280;24125;47.482;8.770;2023-07-31T12:16:29;96113.94;;;26.06;83.93
36386;BME280;24125;47.482;8.770;2023-07-31T12:19:01;96117.03;;;26.08;79.84
36386;BME280;24125;47.482;8.770;2023-07-31T12:21:34;96104.88;;;26.09;80.72
36386;BME280;24125;47.482;8.770;2023-07-31T12:24:07;96104.47;;;26.11;79.35
36386;BME280;24125;47.482;8.770;2023-07-31T12:26:40;96104.72;;;26.16;82.24
36386;BME280;24125;47.482;8.770;2023-07-31T12:29:14;96092.47;;;26.21;80.10
36386;BME280;24125;47.482;8.770;2023-07-31T12:31:47;96081.81;;;26.26;80.17
36386;BME280;24125;47.482;8.770;2023-07-31T12:34:20;96081.63;;;26.34;80.59
36386;BME280;24125;47.482;8.770;2023-07-31T12:36:53;96071.69;;;26.40;82.38
36386;BME280;24125;47.482;8.770;2023-07-31T12:39:26;96071.97;;;26.45;79.54
36386;BME280;24125;47.482;8.770;2023-07-31T12:41:59;96070.66;;;26.50;80.64
36386;BME280;24125;47.482;8.770;2023-07-31T12:44:33;96067.06;;;26.53;83.13
36386;BME280;24125;47.482;8.770;2023-07-31T12:47:06;96072.88;;;26.55;80.65
36386;BME280;24125;47.482;8.770;2023-07-31T12:49:38;96072.00;;;26.58;81.01
36386;BME280;24125;47.482;8.770;2023-07-31T12:52:11;96065.66;;;26.61;80.48
36386;BME280;24125;47.482;8.770;2023-07-31T12:54:44;96057.81;;;26.63;81.17
36386;BME280;24125;47.482;8.770;2023-07-31T12:57:17;96048.34;;;26.64;79.14
36386;BME280;24125;47.482;8.770;2023-07-31T12:59:53;96051.44;;;26.66;80.33
36386;BME280;24125;47.482;8.770;2023-07-31T13:02:25;96033.03;;;26.66;80.55
36386;BME280;24125;47.482;8.770;2023-07-31T13:04:59;96034.25;;;26.65;79.32
36386;BME280;24125;47.482;8.770;2023-07-31T13:07:31;96035.00;;;26.66;79.76
36386;BME280;24125;47.482;8.770;2023-07-31T13:10:05;96026.38;;;26.67;83.60
36386;BME280;24125;47.482;8.770;2023-07-31T13:12:38;96023.63;;;26.67;81.57
36386;BME280;24125;47.482;8.770;2023-07-31T13:15:13;96017.72;;;26.69;80.53
36386;BME280;24125;47.482;8.770;2023-07-31T13:17:46;96011.81;;;26.71;79.22
36386;BME280;24125;47.482;8.770;2023-07-31T13:20:19;96007.09;;;26.71;79.29
36386;BME280;24125;47.482;8.770;2023-07-31T13:22:52;96002.72;;;26.74;79.73
36386;BME280;24125;47.482;8.770;2023-07-31T13:25:25;96001.50;;;26.75;80.57
36386;BME280;24125;47.482;8.770;2023-07-31T13:27:59;96011.19;;;26.79;81.11
36386;BME280;24125;47.482;8.770;2023-07-31T13:30:35;96002.06;;;26.82;81.16
36386;BME280;24125;47.482;8.770;2023-07-31T13:33:08;95998.81;;;26.87;81.18
36386;BME280;24125;47.482;8.770;2023-07-31T13:36:00;95988.09;;;26.93;81.71